Time;durP1;ratioP1;P1;durP2;ratioP2;P2;SDS_P1;SDS_P2;PMS_P1;PMS_P2;Temp;Humidity;BMP_temperature;BMP_pressure;BME280_temperature;BME280_humidity;BME280_pressure;Samples;Min_cycle;Max_cycle;Signal;HPM_P1;HPM_P2
2023/07/08 00:01:49;;;;;;;1.88;1.00;;;21.80;84.40;;;;;;5029851;28;20032;-71
2023/07/08 00:04:15;;;;;;;2.22;0.75;;;21.70;84.30;;;;;;5046769;28;20482;-71
2023/07/08 00:06:40;;;;;;;3.50;0.80;;;21.70;84.50;;;;;;5048587;28;20052;-70
2023/07/08 00:09:11;;;;;;;1.48;0.80;;;21.70;84.80;;;;;;5050277;28;20124;-71
2023/07/08 00:11:37;;;;;;;2.00;1.30;;;21.60;85.40;;;;;;5029932;28;20570;-71
2023/07/08 00:14:03;;;;;;;2.53;0.70;;;21.60;85.40;;;;;;5047842;28;20119;-71
2023/07/08 00:16:28;;;;;;;2.10;0.82;;;21.50;85.80;;;;;;5028554;28;20719;-71
2023/07/08 00:18:54;;;;;;;2.42;0.80;;;21.40;85.80;;;;;;5030336;28;20076;-72
2023/07/08 00:21:19;;;;;;;2.47;0.80;;;21.40;85.50;;;;;;5049504;28;20411;-71
2023/07/08 00:23:50;;;;;;;5.22;0.75;;;21.50;85.30;;;;;;5034198;28;20037;-72
2023/07/08 00:26:28;;;;;;;5.35;0.80;;;21.40;85.10;;;;;;5061979;28;20045;-72
2023/07/08 00:28:54;;;;;;;2.15;0.80;;;21.40;85.40;;;;;;5038744;28;20128;-71
2023/07/08 00:31:23;;;;;;;1.67;0.65;;;21.40;85.50;;;;;;5028317;28;20041;-71
2023/07/08 00:33:49;;;;;;;2.90;0.82;;;21.40;85.80;;;;;;5029247;28;20513;-71
2023/07/08 00:36:19;;;;;;;3.97;0.73;;;21.40;85.40;;;;;;5045526;28;20120;-73
2023/07/08 00:38:45;;;;;;;2.22;0.80;;;21.40;85.30;;;;;;5047022;28;20116;-71
2023/07/08 00:41:23;;;;;;;2.80;0.75;;;21.40;85.10;;;;;;5046774;28;20579;-71
2023/07/08 00:43:51;;;;;;;1.80;0.98;;;21.40;85.00;;;;;;5029639;28;20037;-70
2023/07/08 00:46:29;;;;;;;5.97;1.38;;;21.50;85.10;;;;;;5028202;28;20036;-72
2023/07/08 00:49:08;;;;;;;3.58;0.90;;;21.50;85.10;;;;;;5046770;28;20047;-71
2023/07/08 00:51:38;;;;;;;2.35;0.80;;;21.40;85.70;;;;;;5043111;28;20040;-72
2023/07/08 00:54:10;;;;;;;2.03;0.75;;;21.30;86.00;;;;;;5032640;28;20064;-71
2023/07/08 00:56:58;;;;;;;1.92;0.60;;;21.30;86.10;;;;;;5031608;28;20479;-72
2023/07/08 00:59:33;;;;;;;1.80;0.80;;;21.30;86.20;;;;;;5049446;28;20033;-72
2023/07/08 01:02:03;;;;;;;4.05;0.90;;;21.30;86.20;;;;;;5046843;28;20039;-71
2023/07/08 01:04:34;;;;;;;1.23;0.68;;;21.20;86.70;;;;;;5049229;28;20723;-71
2023/07/08 01:07:03;;;;;;;2.67;1.00;;;21.20;86.90;;;;;;5032347;28;20091;-72
2023/07/08 01:09:36;;;;;;;2.42;1.20;;;21.10;87.00;;;;;;5050281;28;20398;-71
2023/07/08 01:12:07;;;;;;;3.35;0.93;;;21.10;87.30;;;;;;5050429;28;20049;-71
2023/07/08 01:14:36;;;;;;;5.28;0.85;;;21.00;87.50;;;;;;5031920;28;20052;-71
2023/07/08 01:17:02;;;;;;;2.42;0.82;;;20.90;87.90;;;;;;5062224;28;20036;-71
2023/07/08 01:19:32;;;;;;;3.67;1.83;;;20.90;87.80;;;;;;5066381;28;20068;-70
2023/07/08 01:22:00;;;;;;;3.25;0.70;;;20.90;88.00;;;;;;5052166;28;20082;-71
2023/07/08 01:24:29;;;;;;;2.63;0.80;;;20.90;88.00;;;;;;5048980;28;20476;-72
2023/07/08 01:26:55;;;;;;;4.63;1.13;;;20.80;88.40;;;;;;5031836;28;20045;-72
2023/07/08 01:29:21;;;;;;;1.83;1.38;;;20.80;88.60;;;;;;5027011;28;20037;-72
2023/07/08 01:31:48;;;;;;;3.95;1.02;;;20.70;89.10;;;;;;5031902;28;20120;-72
2023/07/08 01:34:16;;;;;;;1.52;0.88;;;20.70;89.40;;;;;;5048757;28;20067;-71
2023/07/08 01:36:47;;;;;;;1.85;0.80;;;20.60;89.50;;;;;;5049083;28;20113;-71
2023/07/08 01:39:17;;;;;;;3.20;0.95;;;20.60;90.00;;;;;;5048791;28;20725;-72
2023/07/08 01:41:43;;;;;;;3.00;1.20;;;20.50;90.20;;;;;;5049237;28;20423;-72
2023/07/08 01:44:36;;;;;;;6.20;0.73;;;20.30;90.30;;;;;;5049814;28;20044;-72
2023/07/08 01:47:18;;;;;;;2.47;0.90;;;20.30;90.30;;;;;;5028278;28;20036;-72
2023/07/08 01:49:47;;;;;;;3.83;1.05;;;20.30;90.50;;;;;;5048744;28;20072;-72
2023/07/08 01:52:15;;;;;;;4.03;0.70;;;20.30;90.70;;;;;;5030549;28;20124;-72
2023/07/08 01:54:40;;;;;;;2.90;0.70;;;20.20;90.80;;;;;;5030797;28;20406;-72
2023/07/08 01:57:06;;;;;;;8.20;1.88;;;20.20;91.10;;;;;;5031116;28;20033;-72
2023/07/08 01:59:32;;;;;;;3.60;0.82;;;20.10;91.00;;;;;;5049528;28;20391;-72
2023/07/08 02:01:57;;;;;;;2.35;0.82;;;20.00;91.20;;;;;;5049034;28;20037;-71
2023/07/08 02:04:24;;;;;;;3.20;0.80;;;20.00;91.20;;;;;;5029188;28;20429;-72
2023/07/08 02:06:59;;;;;;;2.50;1.15;;;19.90;91.50;;;;;;5031142;28;20033;-71
2023/07/08 02:09:25;;;;;;;1.92;1.05;;;19.90;91.50;;;;;;5049068;28;20037;-71
2023/07/08 02:11:52;;;;;;;5.70;1.42;;;19.90;91.50;;;;;;5055890;28;20096;-70
2023/07/08 02:14:18;;;;;;;2.47;1.00;;;19.90;91.60;;;;;;5019381;28;20535;-73
2023/07/08 02:16:43;;;;;;;1.23;0.80;;;19.90;91.70;;;;;;5030865;28;20117;-72
2023/07/08 02:19:10;;;;;;;1.27;0.70;;;19.80;91.80;;;;;;5048982;28;20047;-72
2023/07/08 02:21:36;;;;;;;2.33;0.90;;;19.70;91.90;;;;;;5047886;28;20079;-72
2023/07/08 02:24:02;;;;;;;2.83;0.85;;;19.80;91.90;;;;;;5030095;28;20036;-72
2023/07/08 02:26:27;;;;;;;3.53;0.73;;;19.70;91.90;;;;;;5029200;28;20407;-71
2023/07/08 02:28:53;;;;;;;3.03;1.48;;;19.70;91.80;;;;;;5029727;28;20092;-72
2023/07/08 02:31:19;;;;;;;3.85;0.80;;;19.70;92.20;;;;;;5028715;28;20064;-72
2023/07/08 02:33:44;;;;;;;4.88;1.05;;;19.60;92.20;;;;;;5028865;28;20044;-70
2023/07/08 02:36:10;;;;;;;4.97;1.05;;;19.60;92.30;;;;;;5030036;28;20141;-72
2023/07/08 02:38:36;;;;;;;5.47;0.75;;;19.60;92.40;;;;;;5047291;28;20043;-72
2023/07/08 02:41:01;;;;;;;7.10;1.13;;;19.50;92.50;;;;;;5030348;28;20029;-70
2023/07/08 02:43:27;;;;;;;4.85;1.60;;;19.50;92.60;;;;;;5047390;28;20451;-71
2023/07/08 02:45:52;;;;;;;2.35;0.75;;;19.50;92.60;;;;;;5048519;28;20102;-72
2023/07/08 02:48:19;;;;;;;1.42;0.70;;;19.50;92.70;;;;;;5031708;28;20108;-71
2023/07/08 02:50:45;;;;;;;1.83;0.73;;;19.40;92.80;;;;;;5032743;28;20036;-72
2023/07/08 02:53:11;;;;;;;1.92;0.90;;;19.40;92.90;;;;;;5048792;28;20041;-71
2023/07/08 02:55:37;;;;;;;3.30;1.02;;;19.40;92.80;;;;;;5049004;28;20114;-71
2023/07/08 02:58:03;;;;;;;2.88;0.80;;;19.50;92.80;;;;;;5051582;28;20052;-71
2023/07/08 03:00:29;;;;;;;3.65;1.10;;;19.50;92.90;;;;;;5030405;28;20033;-71
2023/07/08 03:02:54;;;;;;;1.77;0.88;;;19.40;93.10;;;;;;5033498;28;20029;-71
2023/07/08 03:05:20;;;;;;;3.72;1.25;;;19.30;93.30;;;;;;5032655;28;20120;-72
2023/07/08 03:07:45;;;;;;;1.63;0.70;;;19.30;93.20;;;;;;5048507;28;20037;-72
2023/07/08 03:10:11;;;;;;;2.63;1.00;;;19.40;93.30;;;;;;5033806;28;20048;-74
2023/07/08 03:12:37;;;;;;;2.08;1.02;;;19.30;93.20;;;;;;5046980;28;20124;-72
2023/07/08 03:15:03;;;;;;;3.72;1.00;;;19.30;93.40;;;;;;5029647;28;20033;-72
2023/07/08 03:17:29;;;;;;;1.92;0.88;;;19.30;93.40;;;;;;5027620;28;20048;-72
2023/07/08 03:19:54;;;;;;;2.92;1.15;;;19.30;93.40;;;;;;5029492;28;20037;-72
2023/07/08 03:22:20;;;;;;;2.90;0.95;;;19.20;93.70;;;;;;5046118;28;20029;-72
2023/07/08 03:24:46;;;;;;;2.72;0.88;;;19.20;93.40;;;;;;5047398;28;20116;-71
2023/07/08 03:27:14;;;;;;;1.85;0.90;;;19.20;93.60;;;;;;5028881;28;20244;-74
2023/07/08 03:29:41;;;;;;;5.95;1.40;;;19.30;93.40;;;;;;5046641;28;20048;-71
2023/07/08 03:32:10;;;;;;;2.55;1.15;;;19.30;93.50;;;;;;5047228;28;20120;-72
2023/07/08 03:34:36;;;;;;;1.30;0.80;;;19.30;93.40;;;;;;5045793;28;20033;-73
2023/07/08 03:37:02;;;;;;;1.10;0.50;;;19.30;93.40;;;;;;5047059;28;20403;-71
2023/07/08 03:39:27;;;;;;;3.25;0.90;;;19.30;93.40;;;;;;5045684;28;20048;-71
2023/07/08 03:41:54;;;;;;;3.47;0.80;;;19.30;93.50;;;;;;5028798;28;20071;-70
2023/07/08 03:44:20;;;;;;;3.70;1.20;;;19.30;93.60;;;;;;5045803;28;20033;-73
2023/07/08 03:46:49;;;;;;;4.43;1.00;;;19.30;93.50;;;;;;5046995;28;20029;-71
2023/07/08 03:49:15;;;;;;;3.20;1.10;;;19.20;93.70;;;;;;5042864;28;20029;-71
2023/07/08 03:51:42;;;;;;;3.45;0.90;;;19.30;93.90;;;;;;5028686;28;20037;-71
2023/07/08 03:54:11;;;;;;;3.20;0.73;;;19.20;93.60;;;;;;5046843;28;20048;-71
2023/07/08 03:56:37;;;;;;;1.83;0.82;;;19.30;93.60;;;;;;5032559;28;20051;-72
2023/07/08 03:59:02;;;;;;;4.85;1.00;;;19.30;93.70;;;;;;5050757;28;20037;-72
2023/07/08 04:01:28;;;;;;;2.22;1.05;;;19.30;93.70;;;;;;5045857;28;20033;-71
2023/07/08 04:03:56;;;;;;;4.25;0.95;;;19.30;93.60;;;;;;5028435;28;20451;-73
2023/07/08 04:06:23;;;;;;;6.20;0.90;;;19.20;93.60;;;;;;5046007;28;20108;-73
2023/07/08 04:08:49;;;;;;;2.67;0.90;;;19.30;93.70;;;;;;5028534;28;20079;-73
2023/07/08 04:11:17;;;;;;;2.88;1.05;;;19.30;93.70;;;;;;5031887;28;20040;-72
2023/07/08 04:13:43;;;;;;;2.70;1.15;;;19.30;93.90;;;;;;5038096;28;20036;-71
2023/07/08 04:16:37;;;;;;;4.25;1.45;;;19.30;93.70;;;;;;5046573;28;20040;-73
2023/07/08 04:19:02;;;;;;;2.42;1.05;;;19.30;93.70;;;;;;5025880;28;20041;-73
2023/07/08 04:21:30;;;;;;;5.40;0.95;;;19.30;93.90;;;;;;5027524;28;20068;-71
2023/07/08 04:23:55;;;;;;;4.53;1.00;;;19.30;93.90;;;;;;5028468;28;20515;-73
2023/07/08 04:26:21;;;;;;;4.70;0.88;;;19.20;93.90;;;;;;5027514;28;20029;-72
2023/07/08 04:28:46;;;;;;;2.75;0.98;;;19.30;94.00;;;;;;5049882;28;20553;-72
2023/07/08 04:31:12;;;;;;;4.18;1.20;;;19.30;94.10;;;;;;5031941;28;20095;-71
2023/07/08 04:33:38;;;;;;;2.70;1.02;;;19.30;94.00;;;;;;5032036;28;20033;-72
2023/07/08 04:36:04;;;;;;;2.78;0.82;;;19.20;94.20;;;;;;5032410;28;20052;-71
2023/07/08 04:38:31;;;;;;;2.63;0.95;;;19.30;94.20;;;;;;5031474;28;20522;-72
2023/07/08 04:40:57;;;;;;;2.92;0.98;;;19.20;94.20;;;;;;5032533;28;20025;-71
2023/07/08 04:43:29;;;;;;;2.28;1.08;;;19.20;94.30;;;;;;5031306;28;20045;-72
2023/07/08 04:45:55;;;;;;;8.88;0.93;;;19.30;94.30;;;;;;5032632;28;20025;-72
2023/07/08 04:48:22;;;;;;;2.60;1.00;;;19.30;94.30;;;;;;5034439;28;20395;-73
2023/07/08 04:50:50;;;;;;;2.72;0.90;;;19.30;94.30;;;;;;5038646;28;20040;-73
2023/07/08 04:53:16;;;;;;;3.15;1.02;;;19.30;94.40;;;;;;5051407;28;20110;-70
2023/07/08 04:55:44;;;;;;;1.80;1.13;;;19.40;94.40;;;;;;5032078;28;20059;-70
2023/07/08 04:58:10;;;;;;;18.60;0.93;;;19.40;94.10;;;;;;5026734;28;20120;-73
2023/07/08 05:00:36;;;;;;;1.50;0.75;;;19.40;94.20;;;;;;5031402;28;20180;-70
2023/07/08 05:03:01;;;;;;;3.22;1.10;;;19.40;94.10;;;;;;5049940;28;20025;-70
2023/07/08 05:05:27;;;;;;;2.13;0.65;;;19.50;94.10;;;;;;5049211;28;20061;-70
2023/07/08 05:07:53;;;;;;;4.75;1.10;;;19.50;94.10;;;;;;5032529;28;20550;-70
2023/07/08 05:10:20;;;;;;;3.95;1.15;;;19.60;94.10;;;;;;5052273;28;20048;-73
2023/07/08 05:12:47;;;;;;;1.52;0.93;;;19.60;94.20;;;;;;5031918;28;20402;-71
2023/07/08 05:15:13;;;;;;;3.50;0.75;;;19.60;94.10;;;;;;5031793;28;20337;-73
2023/07/08 05:17:39;;;;;;;1.65;0.75;;;19.70;94.10;;;;;;5031344;28;20033;-73
2023/07/08 05:20:07;;;;;;;3.90;1.20;;;19.70;94.10;;;;;;5049864;28;20091;-72
2023/07/08 05:22:33;;;;;;;2.25;0.80;;;19.80;94.10;;;;;;5048984;28;20111;-71
2023/07/08 05:24:58;;;;;;;6.10;1.08;;;19.70;94.10;;;;;;5049993;28;20115;-71
2023/07/08 05:27:24;;;;;;;10.63;1.33;;;19.80;94.00;;;;;;5030713;28;20495;-71
2023/07/08 05:29:51;;;;;;;3.13;1.05;;;19.90;93.90;;;;;;5049719;28;20068;-71
2023/07/08 05:32:17;;;;;;;2.28;1.02;;;19.90;93.90;;;;;;5048809;28;20035;-70
2023/07/08 05:34:44;;;;;;;2.22;1.05;;;20.00;93.80;;;;;;5031501;28;20058;-72
2023/07/08 05:37:10;;;;;;;3.50;0.80;;;20.00;93.70;;;;;;5049909;28;20036;-71
2023/07/08 05:39:36;;;;;;;5.72;1.00;;;20.10;93.70;;;;;;5013185;28;20071;-70
2023/07/08 05:42:02;;;;;;;3.90;1.00;;;20.20;93.50;;;;;;5053105;28;20117;-69
2023/07/08 05:44:28;;;;;;;2.13;1.13;;;20.40;93.30;;;;;;5038233;28;20064;-70
2023/07/08 05:46:54;;;;;;;3.08;1.00;;;20.60;93.40;;;;;;5032320;28;20076;-70
2023/07/08 05:49:19;;;;;;;2.20;0.90;;;20.80;92.90;;;;;;5030544;28;20554;-70
2023/07/08 05:51:45;;;;;;;2.60;0.82;;;21.10;92.70;;;;;;5050447;28;20033;-71
2023/07/08 05:54:11;;;;;;;3.20;1.10;;;21.40;92.20;;;;;;5050166;28;20029;-69
2023/07/08 05:56:36;;;;;;;2.85;1.20;;;21.80;91.90;;;;;;5031599;28;20045;-70
2023/07/08 05:59:03;;;;;;;1.83;0.88;;;22.20;91.40;;;;;;5032316;28;20029;-70
2023/07/08 06:01:29;;;;;;;2.55;0.98;;;22.70;91.00;;;;;;5049359;28;20029;-70
2023/07/08 06:03:57;;;;;;;2.83;0.93;;;23.00;90.20;;;;;;5031702;28;20040;-70
2023/07/08 06:06:23;;;;;;;4.80;1.52;;;23.30;90.10;;;;;;5030331;28;20394;-71
2023/07/08 06:08:49;;;;;;;1.17;0.77;;;23.50;90.00;;;;;;5049172;28;20116;-71
2023/07/08 06:11:15;;;;;;;3.55;0.70;;;23.60;87.80;;;;;;5030507;28;20041;-71
2023/07/08 06:13:40;;;;;;;3.05;1.30;;;23.50;87.90;;;;;;5030825;28;20051;-71
2023/07/08 06:16:06;;;;;;;1.90;0.70;;;23.50;88.10;;;;;;5049181;28;20135;-72
2023/07/08 06:18:35;;;;;;;2.55;1.15;;;23.60;87.40;;;;;;5047899;28;20564;-71
2023/07/08 06:21:01;;;;;;;3.55;1.00;;;23.70;87.80;;;;;;5048742;28;20051;-70
2023/07/08 06:23:28;;;;;;;1.92;0.68;;;23.60;88.20;;;;;;5029732;28;20527;-71
2023/07/08 06:25:54;;;;;;;2.00;0.93;;;23.70;88.80;;;;;;5030672;28;20041;-71
2023/07/08 06:28:20;;;;;;;4.47;1.20;;;23.70;87.70;;;;;;5047723;28;20044;-70
2023/07/08 06:30:46;;;;;;;2.50;0.85;;;23.70;87.40;;;;;;5048702;28;20033;-71
2023/07/08 06:33:12;;;;;;;3.67;1.10;;;23.80;88.00;;;;;;5048722;28;20124;-69
2023/07/08 06:35:39;;;;;;;2.10;1.00;;;23.80;87.60;;;;;;5050732;28;20028;-70
2023/07/08 06:38:05;;;;;;;4.15;1.25;;;23.90;87.60;;;;;;5034771;28;20052;-71
2023/07/08 06:40:31;;;;;;;3.05;1.15;;;24.00;87.80;;;;;;5029579;28;20044;-69
2023/07/08 06:42:57;;;;;;;5.78;0.95;;;24.20;85.80;;;;;;5048528;28;20037;-71
2023/07/08 06:45:23;;;;;;;2.25;0.82;;;24.40;85.50;;;;;;5047732;28;20147;-70
2023/07/08 06:47:48;;;;;;;8.93;0.90;;;24.40;85.30;;;;;;5047951;28;20398;-72
2023/07/08 06:50:14;;;;;;;4.00;1.10;;;24.60;85.30;;;;;;5047530;28;20055;-71
2023/07/08 06:52:39;;;;;;;2.30;1.05;;;25.00;85.50;;;;;;5047335;28;20044;-71
2023/07/08 06:55:08;;;;;;;3.60;1.10;;;25.30;84.70;;;;;;5029807;28;20120;-71
2023/07/08 06:57:34;;;;;;;1.48;0.80;;;25.70;84.10;;;;;;5031914;28;20486;-71
2023/07/08 07:00:00;;;;;;;2.17;1.00;;;26.10;86.30;;;;;;5048355;28;20040;-70
2023/07/08 07:02:26;;;;;;;1.65;0.90;;;26.10;82.80;;;;;;5028697;28;20041;-71
2023/07/08 07:04:52;;;;;;;3.38;1.15;;;26.10;82.80;;;;;;5048050;28;20503;-70
2023/07/08 07:07:18;;;;;;;3.65;1.23;;;26.10;83.10;;;;;;5046839;28;20045;-70
2023/07/08 07:09:43;;;;;;;8.45;1.75;;;26.30;83.00;;;;;;5026829;28;20585;-70
2023/07/08 07:12:09;;;;;;;5.55;1.23;;;26.60;82.00;;;;;;5044164;28;20044;-70
2023/07/08 07:14:35;;;;;;;1.80;1.10;;;27.00;81.30;;;;;;5039570;28;20114;-70
2023/07/08 07:17:00;;;;;;;2.60;1.60;;;27.50;80.90;;;;;;5026329;28;20037;-70
2023/07/08 07:19:26;;;;;;;6.25;2.15;;;28.20;79.10;;;;;;5045560;28;20083;-70
2023/07/08 07:21:52;;;;;;;2.80;1.50;;;28.70;79.50;;;;;;5043501;28;20025;-72
2023/07/08 07:24:18;;;;;;;6.22;1.65;;;29.10;78.90;;;;;;5039819;28;20127;-72
2023/07/08 07:26:44;;;;;;;3.35;1.58;;;30.00;78.20;;;;;;5044154;28;20546;-71
2023/07/08 07:29:10;;;;;;;2.30;1.40;;;31.20;74.60;;;;;;5040714;28;20041;-71
2023/07/08 07:31:35;;;;;;;3.58;1.83;;;32.20;72.80;;;;;;5034843;28;20025;-71
2023/07/08 07:34:01;;;;;;;4.25;1.80;;;32.80;71.00;;;;;;5025313;28;20037;-71
2023/07/08 07:36:28;;;;;;;6.35;1.90;;;33.20;70.70;;;;;;5027532;28;20499;-72
2023/07/08 07:38:54;;;;;;;4.18;1.88;;;33.40;70.60;;;;;;5046310;28;20120;-71
2023/07/08 07:41:20;;;;;;;4.72;1.95;;;33.60;68.90;;;;;;5044648;28;20127;-71
2023/07/08 07:43:46;;;;;;;3.38;1.95;;;34.00;69.00;;;;;;5042368;28;20135;-71
2023/07/08 07:46:12;;;;;;;5.93;2.05;;;34.40;68.50;;;;;;5029032;28;20044;-72
2023/07/08 07:48:38;;;;;;;2.83;2.15;;;34.50;67.50;;;;;;5027806;28;20033;-71
2023/07/08 07:51:05;;;;;;;3.75;2.33;;;34.80;66.50;;;;;;5046717;28;20048;-71
2023/07/08 07:53:31;;;;;;;6.60;1.85;;;34.80;67.10;;;;;;5026704;28;20096;-70
2023/07/08 07:56:02;;;;;;;3.45;1.67;;;34.80;66.30;;;;;;5030127;28;20093;-73
2023/07/08 07:58:28;;;;;;;8.15;2.28;;;35.00;68.30;;;;;;5050512;28;20029;-71
2023/07/08 08:00:53;;;;;;;4.63;2.17;;;35.60;67.00;;;;;;5050504;28;20044;-71
2023/07/08 08:03:20;;;;;;;8.98;2.40;;;35.70;67.00;;;;;;5044384;28;20033;-72
2023/07/08 08:05:46;;;;;;;3.28;2.33;;;35.80;64.70;;;;;;5026688;28;20387;-73
2023/07/08 08:08:12;;;;;;;5.38;2.30;;;35.80;66.70;;;;;;5046438;28;20399;-72
2023/07/08 08:10:37;;;;;;;5.60;1.98;;;35.70;63.80;;;;;;5031560;28;20052;-70
2023/07/08 08:13:03;;;;;;;3.78;1.90;;;35.30;66.90;;;;;;5045285;28;20030;-71
2023/07/08 08:15:29;;;;;;;3.08;2.25;;;35.20;64.70;;;;;;5047825;28;20021;-71
2023/07/08 08:17:55;;;;;;;3.13;2.22;;;34.90;65.10;;;;;;5051515;28;20029;-71
2023/07/08 08:20:22;;;;;;;3.22;1.95;;;34.10;67.40;;;;;;5036011;28;20086;-73
2023/07/08 08:22:48;;;;;;;6.45;2.53;;;33.50;68.10;;;;;;5058893;28;20025;-70
2023/07/08 08:25:15;;;;;;;4.82;2.80;;;33.10;67.40;;;;;;5047939;28;20037;-70
2023/07/08 08:27:41;;;;;;;14.23;2.50;;;32.60;68.90;;;;;;5043202;28;20033;-73
2023/07/08 08:30:07;;;;;;;7.45;1.92;;;31.90;68.10;;;;;;5046459;28;20064;-72
2023/07/08 08:32:33;;;;;;;7.57;1.90;;;31.60;69.30;;;;;;5027470;28;21102;-72
2023/07/08 08:34:59;;;;;;;4.47;1.77;;;31.20;71.30;;;;;;5027196;28;20033;-72
2023/07/08 08:37:24;;;;;;;6.82;1.40;;;30.90;69.90;;;;;;5044389;28;20498;-70
2023/07/08 08:39:50;;;;;;;18.85;2.03;;;30.60;71.80;;;;;;5045986;28;20049;-71
2023/07/08 08:42:28;;;;;;;3.85;1.40;;;30.50;72.90;;;;;;5029451;28;20044;-73
2023/07/08 08:44:57;;;;;;;3.40;1.92;;;30.50;73.40;;;;;;5028921;28;20037;-71
2023/07/08 08:47:39;;;;;;;7.28;1.63;;;30.30;75.20;;;;;;5026015;28;20514;-71
2023/07/08 08:50:28;;;;;;;3.63;2.03;;;30.20;74.90;;;;;;5031597;28;20045;-71
2023/07/08 08:52:55;;;;;;;;;;;30.20;73.00;;;;;;5048870;28;20128;-72
2023/07/08 08:55:23;;;;;;;2.67;1.33;;;30.10;72.70;;;;;;5028058;28;19923;-72
2023/07/08 08:58:09;;;;;;;4.68;1.60;;;30.00;73.10;;;;;;5044987;28;20071;-71
2023/07/08 09:00:54;;;;;;;3.22;1.35;;;30.00;74.20;;;;;;5027546;28;20045;-71
2023/07/08 09:03:56;;;;;;;2.30;1.42;;;30.10;74.30;;;;;;5022812;28;20060;-70
2023/07/08 09:06:31;;;;;;;4.70;1.80;;;30.00;73.70;;;;;;5046802;28;20035;-72
2023/07/08 09:09:01;;;;;;;4.20;1.27;;;29.90;74.50;;;;;;5026988;28;20072;-70
2023/07/08 09:11:32;;;;;;;3.75;1.60;;;30.00;75.00;;;;;;5049205;28;20040;-70
2023/07/08 09:13:58;;;;;;;2.60;1.63;;;29.90;72.10;;;;;;5058492;28;20028;-70
2023/07/08 09:16:42;;;;;;;3.90;2.05;;;30.00;74.90;;;;;;5059008;28;20033;-70
2023/07/08 09:19:12;;;;;;;8.05;1.80;;;30.10;75.50;;;;;;5055814;28;20037;-72
2023/07/08 09:22:03;;;;;;;4.50;1.77;;;30.00;74.30;;;;;;5056846;28;20110;-70
2023/07/08 09:24:40;;;;;;;12.90;3.22;;;30.00;72.30;;;;;;5045785;28;20551;-71
2023/07/08 09:27:06;;;;;;;4.03;1.98;;;30.00;76.80;;;;;;5031681;28;20036;-73
2023/07/08 09:29:33;;;;;;;11.60;3.28;;;30.00;72.70;;;;;;5048733;28;20502;-72
2023/07/08 09:32:00;;;;;;;6.10;2.83;;;30.10;74.80;;;;;;5049636;28;20033;-73
2023/07/08 09:34:40;;;;;;;5.15;1.67;;;30.00;75.40;;;;;;5048340;28;20490;-72
2023/07/08 09:37:24;;;;;;;5.30;1.70;;;30.00;74.70;;;;;;5029589;28;20041;-71
2023/07/08 09:39:51;;;;;;;3.63;1.80;;;30.00;77.10;;;;;;5030924;28;20045;-72
2023/07/08 09:42:17;;;;;;;5.88;2.47;;;30.00;74.40;;;;;;5030970;28;20033;-72
2023/07/08 09:44:45;;;;;;;6.68;2.05;;;30.10;72.20;;;;;;5049060;28;20029;-74
2023/07/08 09:47:30;;;;;;;3.45;1.83;;;30.10;73.70;;;;;;5049305;28;20048;-71
2023/07/08 09:49:58;;;;;;;9.63;2.22;;;30.20;77.20;;;;;;5045363;28;20032;-72
2023/07/08 09:52:25;;;;;;;7.20;2.38;;;30.30;72.70;;;;;;5048370;28;20028;-73
2023/07/08 09:54:51;;;;;;;7.47;2.50;;;30.40;72.10;;;;;;5030813;28;20072;-72
2023/07/08 09:57:31;;;;;;;9.15;2.10;;;30.40;75.40;;;;;;5052527;28;20049;-73
2023/07/08 10:00:11;;;;;;;3.20;1.90;;;30.60;72.40;;;;;;5046119;28;20507;-72
2023/07/08 10:02:44;;;;;;;6.05;2.40;;;30.50;69.60;;;;;;5030192;28;20960;-72
2023/07/08 10:05:36;;;;;;;8.18;2.60;;;30.60;75.00;;;;;;5049824;28;20052;-73
2023/07/08 10:08:11;;;;;;;8.32;2.20;;;30.50;72.80;;;;;;5050534;28;20040;-73
2023/07/08 10:10:38;;;;;;;4.80;2.28;;;30.50;75.50;;;;;;5045718;28;20053;-73
2023/07/08 10:13:34;;;;;;;5.63;2.55;;;30.60;71.70;;;;;;5045054;28;20079;-73
2023/07/08 10:16:17;;;;;;;5.20;2.13;;;30.80;72.00;;;;;;5046207;28;20045;-73
2023/07/08 10:18:42;;;;;;;6.05;2.45;;;30.90;70.40;;;;;;5047457;28;20037;-72
2023/07/08 10:21:13;;;;;;;5.47;2.03;;;31.00;70.50;;;;;;5028036;28;20044;-70
2023/07/08 10:24:16;;;;;;;5.30;2.75;;;31.00;68.90;;;;;;5029322;28;20032;-71
2023/07/08 10:26:44;;;;;;;4.47;2.35;;;31.10;69.30;;;;;;5044003;28;20029;-71
2023/07/08 10:29:36;;;;;;;4.43;2.30;;;31.20;70.10;;;;;;5029776;28;20128;-74
2023/07/08 10:32:04;;;;;;;4.57;2.80;;;31.20;73.00;;;;;;5015727;28;20061;-73
2023/07/08 10:34:39;;;;;;;4.97;2.47;;;31.30;70.60;;;;;;5046613;28;20120;-71
2023/07/08 10:37:12;;;;;;;6.15;2.40;;;31.40;68.70;;;;;;5047479;28;20084;-72
2023/07/08 10:39:49;;;;;;;5.13;2.80;;;31.30;70.40;;;;;;5046512;28;20048;-72
2023/07/08 10:42:43;;;;;;;4.97;2.38;;;31.30;67.70;;;;;;5046710;28;20037;-73
2023/07/08 10:45:31;;;;;;;4.82;2.10;;;31.30;69.10;;;;;;5046080;28;20063;-73
2023/07/08 10:48:12;;;;;;;4.70;2.40;;;31.30;70.10;;;;;;5046205;28;20048;-72
2023/07/08 10:50:48;;;;;;;6.13;2.60;;;31.40;72.20;;;;;;5046427;28;20127;-71
2023/07/08 10:53:41;;;;;;;4.72;2.22;;;31.40;68.80;;;;;;5047207;28;20056;-72
2023/07/08 10:56:21;;;;;;;4.88;2.55;;;31.50;66.10;;;;;;5044891;28;20041;-72
2023/07/08 10:59:06;;;;;;;5.88;2.42;;;31.60;65.10;;;;;;5031675;28;20059;-71
2023/07/08 11:01:32;;;;;;;5.72;2.58;;;31.60;66.90;;;;;;5032880;28;20032;-72
2023/07/08 11:04:27;;;;;;;4.10;2.50;;;31.60;67.40;;;;;;5047389;28;20560;-71
2023/07/08 11:07:43;;;;;;;4.43;2.38;;;31.60;68.30;;;;;;5044444;28;20408;-72
2023/07/08 11:10:22;;;;;;;11.02;2.53;;;31.60;69.60;;;;;;5040797;28;20062;-72
2023/07/08 11:13:05;;;;;;;3.80;2.20;;;31.70;68.00;;;;;;5043780;28;20040;-72
2023/07/08 11:15:40;;;;;;;5.22;2.45;;;31.60;66.50;;;;;;5024469;28;20074;-72
2023/07/08 11:18:23;;;;;;;6.38;2.70;;;31.80;68.40;;;;;;5044990;28;20080;-71
2023/07/08 11:21:05;;;;;;;5.03;3.10;;;31.90;65.60;;;;;;5024135;28;20044;-72
2023/07/08 11:23:42;;;;;;;6.15;2.25;;;31.90;67.90;;;;;;5025008;28;20068;-71
2023/07/08 11:26:17;;;;;;;4.40;2.40;;;31.90;68.50;;;;;;5046248;28;20045;-73
2023/07/08 11:28:43;;;;;;;5.00;2.30;;;31.90;67.50;;;;;;5045099;28;20120;-73
2023/07/08 11:31:11;;;;;;;4.20;2.63;;;31.90;70.60;;;;;;5029452;28;20120;-73
2023/07/08 11:33:38;;;;;;;5.57;2.80;;;31.90;66.60;;;;;;5044155;28;20448;-73
2023/07/08 11:36:04;;;;;;;5.32;2.35;;;31.80;69.20;;;;;;5045106;28;20116;-72
2023/07/08 11:38:33;;;;;;;4.55;2.58;;;31.90;68.90;;;;;;5044145;28;20049;-72
2023/07/08 11:41:14;;;;;;;5.25;2.75;;;31.90;68.60;;;;;;5047255;28;20519;-73
2023/07/08 11:43:47;;;;;;;6.22;2.35;;;31.90;70.20;;;;;;5028350;28;20918;-72
2023/07/08 11:46:20;;;;;;;4.25;2.40;;;32.00;70.20;;;;;;5029176;28;20040;-73
2023/07/08 11:48:52;;;;;;;10.25;3.15;;;32.10;71.70;;;;;;5042940;28;20032;-73
2023/07/08 11:51:28;;;;;;;4.60;2.30;;;32.10;71.90;;;;;;5044609;28;20116;-73
2023/07/08 11:54:07;;;;;;;6.55;2.38;;;32.20;70.90;;;;;;5027762;28;20040;-73
2023/07/08 11:57:04;;;;;;;3.63;2.25;;;32.20;71.10;;;;;;5030058;28;20491;-72
2023/07/08 11:59:37;;;;;;;6.35;2.17;;;32.10;71.50;;;;;;5009918;28;20037;-73
2023/07/08 12:02:14;;;;;;;8.60;2.67;;;32.10;71.50;;;;;;5027620;28;20033;-73
2023/07/08 12:04:57;;;;;;;7.63;2.83;;;32.10;70.20;;;;;;5026305;28;20087;-73
2023/07/08 12:07:43;;;;;;;4.13;2.28;;;32.20;72.20;;;;;;5023314;28;20038;-76
2023/07/08 12:10:25;;;;;;;6.43;2.42;;;32.10;70.30;;;;;;5009779;28;20045;-73
2023/07/08 12:12:51;;;;;;;3.53;2.42;;;32.10;68.50;;;;;;5023452;28;20029;-70
2023/07/08 12:15:31;;;;;;;5.10;2.70;;;32.20;69.20;;;;;;5026969;28;20029;-74
2023/07/08 12:18:04;;;;;;;3.92;2.53;;;32.20;70.80;;;;;;5024986;28;20064;-72
2023/07/08 12:20:34;;;;;;;6.15;2.65;;;32.20;70.20;;;;;;5026574;28;20423;-72
2023/07/08 12:23:00;;;;;;;4.20;2.17;;;32.20;67.50;;;;;;5011050;28;20105;-70
2023/07/08 12:25:35;;;;;;;5.20;2.60;;;32.20;68.00;;;;;;5010546;28;20034;-72
2023/07/08 12:28:02;;;;;;;6.07;2.47;;;32.10;70.10;;;;;;5028762;28;20033;-72
2023/07/08 12:30:30;;;;;;;4.22;2.45;;;32.20;69.40;;;;;;5009103;28;20037;-70
2023/07/08 12:32:56;;;;;;;5.43;2.40;;;32.20;70.90;;;;;;5026919;28;20037;-72
2023/07/08 12:35:30;;;;;;;4.65;2.25;;;32.20;71.20;;;;;;5007968;28;20403;-73
2023/07/08 12:38:00;;;;;;;4.30;2.30;;;32.20;67.90;;;;;;5009285;28;20133;-71
2023/07/08 12:40:27;;;;;;;;;;;32.20;70.20;;;;;;5004244;28;20132;-72
2023/07/08 12:42:54;;;;;;;6.65;2.15;;;32.20;68.50;;;;;;5028020;28;20378;-72
2023/07/08 12:45:21;;;;;;;5.72;2.60;;;32.20;67.60;;;;;;5027283;28;20038;-71
2023/07/08 12:47:48;;;;;;;6.07;3.30;;;32.20;67.20;;;;;;5025202;28;20038;-70
2023/07/08 12:50:14;;;;;;;4.93;2.65;;;32.20;67.90;;;;;;5028978;28;20030;-72
2023/07/08 12:52:40;;;;;;;5.55;2.70;;;32.10;67.80;;;;;;5030805;28;20133;-72
2023/07/08 12:55:10;;;;;;;6.50;2.70;;;32.10;66.10;;;;;;5032229;28;20045;-71
2023/07/08 12:57:36;;;;;;;9.68;4.20;;;32.10;64.80;;;;;;5030318;28;20188;-72
2023/07/08 13:00:03;;;;;;;8.48;3.42;;;32.00;65.00;;;;;;5029715;28;20029;-73
2023/07/08 13:02:31;;;;;;;7.05;3.20;;;32.00;65.60;;;;;;5010207;28;20060;-73